createdAt,value
2018-04-13T00:00:28.482Z,98.60
2018-04-13T00:02:55.979Z,98.50
2018-04-13T00:05:23.442Z,98.70
2018-04-13T00:07:50.908Z,98.70
2018-04-13T00:10:19.370Z,98.50
2018-04-13T00:12:46.844Z,98.50
2018-04-13T00:15:15.072Z,98.40
2018-04-13T00:17:42.531Z,98.30
2018-04-13T00:20:09.982Z,98.50
2018-04-13T00:22:37.432Z,98.60
2018-04-13T00:25:04.917Z,98.40
2018-04-13T00:27:32.383Z,98.40
2018-04-13T00:29:59.859Z,98.90
2018-04-13T00:32:28.075Z,98.20
2018-04-13T00:34:55.580Z,98.10
2018-04-13T00:37:23.147Z,98.30
2018-04-13T00:39:50.587Z,98.30
2018-04-13T00:42:18.043Z,99.70
2018-04-13T00:44:45.529Z,98.80
2018-04-13T00:47:13.831Z,98.20
2018-04-13T00:49:41.325Z,98.20
2018-04-13T00:52:08.897Z,98.80
2018-04-13T00:54:36.353Z,98.90
2018-04-13T00:57:04.731Z,98.70
2018-04-13T00:59:32.172Z,98.60
2018-04-13T01:01:59.647Z,98.80
2018-04-13T01:04:27.084Z,99.00
2018-04-13T01:06:54.580Z,99.10
2018-04-13T01:09:22.787Z,99.30
2018-04-13T01:11:50.252Z,99.30
2018-04-13T01:14:17.699Z,98.90
2018-04-13T01:16:45.949Z,98.50
2018-04-13T01:19:14.175Z,99.00
2018-04-13T01:21:41.653Z,98.90
2018-04-13T01:24:09.124Z,99.10
2018-04-13T01:26:37.396Z,98.80
2018-04-13T01:29:05.645Z,99.00
2018-04-13T01:31:33.220Z,99.00
2018-04-13T01:34:00.688Z,98.70
2018-04-13T01:36:28.912Z,98.70
2018-04-13T01:38:56.379Z,98.70
2018-04-13T01:41:23.839Z,99.00
2018-04-13T01:43:51.437Z,99.10
2018-04-13T01:46:18.967Z,99.10
2018-04-13T01:48:46.646Z,98.80
2018-04-13T01:51:14.945Z,98.90
2018-04-13T01:53:43.152Z,99.20
2018-04-13T01:56:10.647Z,99.20
2018-04-13T01:58:38.119Z,99.20
2018-04-13T02:01:05.582Z,99.20
2018-04-13T02:03:33.030Z,99.20
2018-04-13T02:06:01.255Z,99.30
2018-04-13T02:08:28.752Z,99.70
2018-04-13T02:10:57.714Z,99.90
2018-04-13T02:13:25.172Z,99.90
2018-04-13T02:15:52.670Z,99.90
2018-04-13T02:18:20.139Z,99.90
2018-04-13T02:20:48.358Z,99.90
2018-04-13T02:23:15.847Z,99.90
2018-04-13T02:25:43.923Z,99.90
2018-04-13T02:28:12.162Z,99.90
2018-04-13T02:30:39.623Z,99.90
2018-04-13T02:33:07.119Z,99.90
2018-04-13T02:35:34.561Z,99.90
2018-04-13T02:38:02.049Z,99.90
2018-04-13T02:40:30.296Z,99.90
2018-04-13T02:42:57.771Z,99.90
2018-04-13T02:45:26.011Z,99.90
2018-04-13T02:47:53.460Z,99.90
2018-04-13T02:50:20.935Z,99.90
2018-04-13T02:52:48.384Z,99.90
2018-04-13T02:55:16.763Z,99.90
2018-04-13T02:57:44.257Z,99.90
2018-04-13T03:00:12.505Z,99.70
2018-04-13T03:02:39.960Z,99.70
2018-04-13T03:05:07.531Z,99.80
2018-04-13T03:07:36.573Z,99.70
2018-04-13T03:10:04.756Z,99.80
2018-04-13T03:12:32.232Z,99.80
2018-04-13T03:14:59.699Z,99.90
2018-04-13T03:17:27.204Z,99.80
2018-04-13T03:19:54.734Z,99.90
2018-04-13T03:22:22.286Z,99.90
2018-04-13T03:24:49.747Z,99.80
2018-04-13T03:27:17.188Z,99.90
2018-04-13T03:29:44.746Z,99.90
2018-04-13T03:32:12.320Z,99.90
2018-04-13T03:34:39.851Z,99.90
2018-04-13T03:37:07.319Z,99.90
2018-04-13T03:39:34.893Z,99.90
2018-04-13T03:42:02.336Z,99.90
2018-04-13T03:44:29.907Z,99.70
2018-04-13T03:46:57.343Z,99.80
2018-04-13T03:49:24.927Z,99.90
2018-04-13T03:51:52.377Z,99.50
2018-04-13T03:54:20.396Z,99.90
2018-04-13T03:56:47.873Z,99.90
2018-04-13T03:59:15.339Z,99.40
2018-04-13T04:01:42.804Z,99.90
2018-04-13T04:04:10.257Z,99.90
2018-04-13T04:06:37.724Z,99.90
2018-04-13T04:09:06.060Z,99.90
2018-04-13T04:11:33.519Z,99.90
2018-04-13T04:14:00.973Z,99.90
2018-04-13T04:16:28.548Z,99.90
2018-04-13T04:18:56.034Z,99.90
2018-04-13T04:21:35.476Z,99.90
2018-04-13T04:24:14.956Z,99.90
2018-04-13T04:26:51.241Z,99.90
2018-04-13T04:29:18.713Z,99.90
2018-04-13T04:31:46.162Z,99.90
2018-04-13T04:34:13.604Z,99.90
2018-04-13T04:36:41.064Z,99.90
2018-04-13T04:39:08.503Z,99.90
2018-04-13T04:41:36.020Z,99.90
2018-04-13T04:44:03.488Z,99.90
2018-04-13T04:46:31.736Z,99.90
2018-04-13T04:48:59.257Z,99.90
2018-04-13T04:51:26.719Z,99.90
2018-04-13T04:53:54.215Z,99.90
2018-04-13T04:56:21.774Z,99.90
2018-04-13T04:58:50.133Z,99.90
2018-04-13T05:01:17.588Z,99.90
2018-04-13T05:03:45.034Z,99.90
2018-04-13T05:06:12.507Z,99.90
2018-04-13T05:08:39.973Z,99.90
2018-04-13T05:11:07.464Z,99.90
2018-04-13T05:13:35.730Z,99.90
2018-04-13T05:16:03.230Z,99.90
2018-04-13T05:18:30.715Z,99.90
2018-04-13T05:20:58.204Z,99.90
2018-04-13T05:23:25.759Z,99.90
2018-04-13T05:25:53.401Z,99.90
2018-04-13T05:28:20.874Z,99.90
2018-04-13T05:30:48.331Z,99.90
2018-04-13T05:33:17.303Z,99.90
2018-04-13T05:35:44.858Z,99.90
2018-04-13T05:38:12.337Z,99.90
2018-04-13T05:40:40.553Z,99.90
2018-04-13T05:43:08.082Z,99.90
2018-04-13T05:45:36.324Z,99.90
2018-04-13T05:48:03.781Z,99.90
2018-04-13T05:50:31.239Z,99.90
2018-04-13T05:52:58.731Z,99.90
2018-04-13T05:55:26.980Z,99.90
2018-04-13T05:57:54.453Z,99.90
2018-04-13T06:00:22.112Z,99.90
2018-04-13T06:02:49.600Z,99.90
2018-04-13T06:05:17.821Z,99.90
2018-04-13T06:07:45.303Z,99.90
2018-04-13T06:10:12.763Z,99.90
2018-04-13T06:12:41.007Z,99.90
2018-04-13T06:15:08.463Z,99.90
2018-04-13T06:17:35.924Z,99.90
2018-04-13T06:20:03.511Z,99.90
2018-04-13T06:22:31.040Z,99.90
2018-04-13T06:24:58.526Z,99.90
2018-04-13T06:27:26.796Z,99.90
2018-04-13T06:29:54.284Z,99.90
2018-04-13T06:32:21.755Z,99.90
2018-04-13T06:34:49.248Z,99.90
2018-04-13T06:37:16.786Z,99.90
2018-04-13T06:39:44.240Z,99.90
2018-04-13T06:42:11.719Z,99.90
2018-04-13T06:44:39.249Z,99.90
2018-04-13T06:47:06.719Z,99.90
2018-04-13T06:49:34.215Z,99.90
2018-04-13T06:52:01.757Z,99.90
2018-04-13T06:54:29.255Z,99.90
2018-04-13T06:56:56.769Z,99.90
2018-04-13T06:59:24.394Z,99.60
2018-04-13T07:01:52.061Z,99.00
2018-04-13T07:04:19.504Z,98.70
2018-04-13T07:06:46.987Z,98.00
2018-04-13T07:09:14.439Z,98.20
2018-04-13T07:11:41.882Z,98.70
2018-04-13T07:14:09.364Z,99.30
2018-04-13T07:16:36.849Z,99.20
2018-04-13T07:19:04.368Z,98.70
2018-04-13T07:21:32.088Z,99.20
2018-04-13T07:24:00.332Z,99.80
2018-04-13T07:26:27.827Z,99.80
2018-04-13T07:28:56.094Z,99.10
2018-04-13T07:31:24.347Z,99.10
2018-04-13T07:33:51.837Z,99.00
2018-04-13T07:36:20.166Z,98.30
2018-04-13T07:38:47.662Z,98.30
2018-04-13T07:41:15.943Z,97.40
2018-04-13T07:43:44.211Z,97.50
2018-04-13T07:46:12.527Z,96.90
2018-04-13T07:48:40.012Z,96.90
2018-04-13T07:51:07.503Z,97.50
2018-04-13T07:53:35.746Z,98.40
2018-04-13T07:56:03.237Z,98.00
2018-04-13T07:58:31.501Z,97.20
2018-04-13T08:00:59.038Z,97.20
2018-04-13T08:03:26.591Z,97.20
2018-04-13T08:05:54.082Z,97.30
2018-04-13T08:08:21.787Z,96.70
2018-04-13T08:10:49.044Z,97.20
2018-04-13T08:13:16.537Z,97.50
2018-04-13T08:15:43.995Z,98.20
2018-04-13T08:18:11.467Z,98.40
2018-04-13T08:20:38.973Z,98.80
2018-04-13T08:23:06.435Z,98.60
2018-04-13T08:25:33.984Z,98.70
2018-04-13T08:28:01.496Z,98.40
2018-04-13T08:30:28.972Z,98.40
2018-04-13T08:32:57.197Z,97.80
2018-04-13T08:35:24.712Z,97.70
2018-04-13T08:37:52.899Z,97.70
2018-04-13T08:40:20.342Z,97.60
2018-04-13T08:42:47.816Z,98.00
2018-04-13T08:45:15.295Z,98.50
2018-04-13T08:47:42.758Z,98.00
2018-04-13T08:50:10.457Z,97.40
2018-04-13T08:52:38.779Z,98.50
2018-04-13T08:55:06.535Z,98.20
2018-04-13T08:57:34.919Z,97.20
2018-04-13T09:00:02.579Z,97.20
2018-04-13T09:02:30.241Z,96.30
2018-04-13T09:04:57.895Z,95.80
2018-04-13T09:07:25.565Z,95.50
2018-04-13T09:09:53.319Z,95.90
2018-04-13T09:12:21.711Z,96.50
2018-04-13T09:14:50.495Z,97.90
2018-04-13T09:17:18.128Z,97.70
2018-04-13T09:19:49.798Z,99.80
2018-04-13T09:22:17.373Z,99.80
2018-04-13T09:24:44.927Z,99.90
2018-04-13T09:27:12.421Z,99.90
2018-04-13T09:29:39.859Z,99.70
2018-04-13T09:32:07.447Z,99.00
2018-04-13T09:34:34.880Z,99.90
2018-04-13T09:37:02.359Z,99.90
2018-04-13T09:39:29.835Z,99.90
2018-04-13T09:41:58.071Z,99.90
2018-04-13T09:44:25.575Z,99.90
2018-04-13T09:46:53.003Z,99.90
2018-04-13T09:49:20.489Z,99.90
2018-04-13T09:51:47.943Z,99.90
2018-04-13T09:54:16.154Z,99.90
2018-04-13T09:56:43.636Z,99.90
2018-04-13T09:59:11.192Z,99.70
2018-04-13T10:01:39.591Z,99.60
2018-04-13T10:04:12.960Z,99.90
2018-04-13T10:06:40.427Z,99.90
2018-04-13T10:09:07.981Z,99.90
2018-04-13T10:11:35.549Z,99.90
2018-04-13T10:14:03.788Z,99.90
2018-04-13T10:16:31.294Z,99.90
2018-04-13T10:18:58.806Z,99.90
2018-04-13T10:21:26.284Z,99.90
2018-04-13T10:23:53.765Z,99.90
2018-04-13T10:26:21.211Z,99.90
2018-04-13T10:28:48.669Z,99.90
2018-04-13T10:31:16.149Z,99.90
2018-04-13T10:33:44.407Z,99.90
2018-04-13T10:36:11.887Z,99.90
2018-04-13T10:38:40.191Z,99.90
2018-04-13T10:41:07.749Z,99.90
2018-04-13T10:43:35.214Z,99.90
2018-04-13T10:46:02.694Z,99.90
2018-04-13T10:48:30.143Z,99.90
2018-04-13T10:50:57.637Z,99.90
2018-04-13T10:53:25.085Z,99.90
2018-04-13T10:55:52.651Z,99.90
2018-04-13T10:58:20.125Z,99.90
2018-04-13T11:00:48.391Z,99.90
2018-04-13T11:03:16.615Z,99.40
2018-04-13T11:05:44.062Z,99.40
2018-04-13T11:08:11.554Z,99.00
2018-04-13T11:10:39.014Z,99.20
2018-04-13T11:13:06.561Z,98.60
2018-04-13T11:15:34.725Z,99.00
2018-04-13T11:18:02.204Z,99.20
2018-04-13T11:20:30.119Z,99.10
2018-04-13T11:22:57.621Z,98.80
2018-04-13T11:25:25.168Z,98.00
2018-04-13T11:27:52.624Z,97.50
2018-04-13T11:30:20.082Z,97.20
2018-04-13T11:32:47.573Z,97.10
2018-04-13T11:35:15.036Z,96.30
2018-04-13T11:37:43.267Z,95.20
2018-04-13T11:40:10.735Z,95.20
2018-04-13T11:42:38.178Z,95.10
2018-04-13T11:45:05.653Z,94.90
2018-04-13T11:47:33.122Z,95.10
2018-04-13T11:50:00.580Z,94.50
2018-04-13T11:52:28.072Z,94.90
2018-04-13T11:54:55.556Z,94.20
2018-04-13T11:57:23.054Z,94.20
2018-04-13T11:59:50.521Z,93.60
2018-04-13T12:02:18.881Z,92.80
2018-04-13T12:04:46.368Z,92.80
2018-04-13T12:07:14.064Z,92.10
2018-04-13T12:09:41.539Z,92.20
2018-04-13T12:12:09.007Z,92.10
2018-04-13T12:14:36.587Z,91.50
2018-04-13T12:17:04.063Z,92.60
2018-04-13T12:19:32.315Z,91.50
2018-04-13T12:21:59.784Z,91.40
2018-04-13T12:24:28.029Z,91.50
2018-04-13T12:26:55.469Z,91.50
2018-04-13T12:29:22.936Z,91.70
2018-04-13T12:31:50.403Z,91.90
2018-04-13T12:34:17.873Z,92.50
2018-04-13T12:36:48.963Z,92.70
2018-04-13T12:39:16.632Z,92.30
2018-04-13T12:41:44.062Z,92.70
2018-04-13T12:44:11.650Z,93.20
2018-04-13T12:46:39.094Z,92.80
2018-04-13T12:49:06.610Z,92.90
2018-04-13T12:51:34.250Z,93.30
2018-04-13T12:54:01.711Z,92.80
2018-04-13T12:56:29.205Z,92.20
2018-04-13T12:58:56.743Z,92.80
2018-04-13T13:01:24.269Z,92.50
2018-04-13T13:03:51.722Z,92.80
2018-04-13T13:06:19.188Z,92.70
2018-04-13T13:08:46.691Z,92.80
2018-04-13T13:11:14.101Z,92.60
2018-04-13T13:13:41.609Z,92.10
2018-04-13T13:16:09.850Z,92.40
2018-04-13T13:18:37.486Z,92.40
2018-04-13T13:21:05.047Z,92.80
2018-04-13T13:23:32.511Z,92.00
2018-04-13T13:25:59.997Z,92.00
2018-04-13T13:28:27.470Z,92.00
2018-04-13T13:30:55.692Z,91.70
2018-04-13T13:33:23.138Z,91.70
2018-04-13T13:35:50.622Z,91.80
2018-04-13T13:38:18.074Z,91.50
2018-04-13T13:40:45.547Z,91.40
2018-04-13T13:43:13.084Z,90.50
2018-04-13T13:45:40.559Z,90.20
2018-04-13T13:48:08.023Z,91.30
2018-04-13T13:50:35.493Z,91.80
2018-04-13T13:53:07.499Z,90.70
2018-04-13T13:55:34.944Z,90.60
2018-04-13T13:58:02.416Z,90.90
2018-04-13T14:00:30.057Z,91.00
2018-04-13T14:02:58.429Z,91.40
2018-04-13T14:08:00.059Z,92.70
2018-04-13T14:10:28.426Z,91.30
2018-04-13T14:12:55.997Z,91.30
2018-04-13T14:15:24.311Z,92.60
2018-04-13T14:17:51.876Z,92.60
2018-04-13T14:20:19.688Z,92.00
2018-04-13T14:22:47.136Z,91.70
2018-04-13T14:25:14.636Z,92.30
2018-04-13T14:27:42.173Z,92.30
2018-04-13T14:30:09.685Z,91.60
2018-04-13T14:32:37.282Z,92.60
2018-04-13T14:35:04.778Z,92.30
2018-04-13T14:37:32.595Z,92.10
2018-04-13T14:40:00.142Z,91.80
2018-04-13T14:42:27.753Z,92.00
2018-04-13T14:44:55.264Z,92.30
2018-04-13T14:47:22.726Z,92.30
2018-04-13T14:49:50.207Z,92.00
2018-04-13T14:52:17.835Z,92.20
2018-04-13T14:54:45.314Z,91.80
2018-04-13T14:57:12.792Z,92.70
2018-04-13T14:59:41.184Z,92.20
2018-04-13T15:02:08.659Z,92.40
2018-04-13T15:04:36.220Z,92.10
2018-04-13T15:07:03.743Z,91.90
2018-04-13T15:09:31.325Z,92.30
2018-04-13T15:11:58.853Z,92.10
2018-04-13T15:14:26.287Z,92.00
2018-04-13T15:16:53.746Z,92.20
2018-04-13T15:19:21.222Z,91.30
2018-04-13T15:21:48.685Z,91.80
2018-04-13T15:24:16.920Z,92.40
2018-04-13T15:26:44.392Z,92.20
2018-04-13T15:29:11.840Z,92.40
2018-04-13T15:31:39.293Z,93.10
2018-04-13T15:34:06.925Z,93.10
2018-04-13T15:36:35.239Z,92.80
2018-04-13T15:39:02.690Z,92.60
2018-04-13T15:41:30.159Z,92.70
2018-04-13T15:43:57.616Z,93.30
2018-04-13T15:46:25.091Z,93.10
2018-04-13T15:48:52.545Z,92.90
2018-04-13T15:51:20.103Z,93.30
2018-04-13T15:53:47.551Z,93.50
2018-04-13T15:56:14.994Z,92.80
2018-04-13T15:58:42.471Z,93.20
2018-04-13T16:01:10.018Z,92.90
2018-04-13T16:03:38.291Z,93.20
2018-04-13T16:06:05.755Z,92.80
2018-04-13T16:08:33.818Z,92.60
2018-04-13T16:11:01.400Z,92.90
2018-04-13T16:13:28.863Z,92.50
2018-04-13T16:15:56.416Z,92.90
2018-04-13T16:18:23.969Z,93.10
2018-04-13T16:20:51.426Z,93.10
2018-04-13T16:23:20.419Z,92.30
2018-04-13T16:25:47.984Z,92.30
2018-04-13T16:28:15.458Z,92.70
2018-04-13T16:30:43.672Z,92.70
2018-04-13T16:33:11.138Z,92.60
2018-04-13T16:35:38.604Z,93.30
2018-04-13T16:38:06.065Z,92.60
2018-04-13T16:40:33.519Z,92.90
2018-04-13T16:43:00.978Z,92.80
2018-04-13T16:45:28.452Z,92.20
2018-04-13T16:47:55.975Z,92.40
2018-04-13T16:50:23.451Z,92.70
2018-04-13T16:52:50.909Z,92.20
2018-04-13T16:55:18.428Z,92.10
2018-04-13T16:57:46.633Z,92.20
2018-04-13T17:00:14.103Z,92.10
2018-04-13T17:02:41.652Z,92.40
2018-04-13T17:05:09.135Z,92.00
2018-04-13T17:07:36.679Z,92.10
2018-04-13T17:10:04.297Z,92.10
2018-04-13T17:12:31.743Z,92.20
2018-04-13T17:14:59.258Z,91.70
2018-04-13T17:17:26.712Z,91.90
2018-04-13T17:19:55.011Z,91.70
2018-04-13T17:22:23.238Z,92.20
2018-04-13T17:24:50.715Z,92.50
2018-04-13T17:27:18.176Z,92.30
2018-04-13T17:29:45.683Z,92.00
2018-04-13T17:32:13.163Z,92.00
2018-04-13T17:34:40.603Z,92.30
2018-04-13T17:37:08.077Z,92.60
2018-04-13T17:39:35.558Z,92.80
2018-04-13T17:42:02.999Z,93.20
2018-04-13T17:44:30.480Z,93.80
2018-04-13T17:46:57.942Z,94.10
2018-04-13T17:49:25.401Z,95.10
2018-04-13T17:51:52.850Z,96.00
2018-04-13T17:54:20.307Z,96.70
2018-04-13T17:56:47.798Z,96.60
2018-04-13T17:59:15.258Z,96.40
2018-04-13T18:01:42.736Z,95.40
2018-04-13T18:04:10.254Z,95.10
2018-04-13T18:06:38.488Z,96.10
2018-04-13T18:09:05.960Z,96.00
2018-04-13T18:11:33.418Z,97.10
2018-04-13T18:14:00.908Z,95.90
2018-04-13T18:16:29.173Z,97.00
2018-04-13T18:18:57.413Z,97.10
2018-04-13T18:21:24.892Z,97.10
2018-04-13T18:23:52.380Z,97.50
2018-04-13T18:26:19.888Z,97.30
2018-04-13T18:28:47.722Z,96.30
2018-04-13T18:31:15.382Z,96.10
2018-04-13T18:33:42.895Z,95.80
2018-04-13T18:36:10.315Z,96.00
2018-04-13T18:38:37.797Z,96.10
2018-04-13T18:41:05.238Z,96.20
2018-04-13T18:43:32.723Z,96.20
2018-04-13T18:46:00.184Z,96.30
2018-04-13T18:48:27.666Z,96.40
2018-04-13T18:50:55.141Z,96.50
2018-04-13T18:53:22.605Z,96.60
2018-04-13T18:55:50.111Z,96.70
2018-04-13T18:58:17.646Z,96.80
2018-04-13T19:00:45.163Z,96.50
2018-04-13T19:03:12.699Z,96.70
2018-04-13T19:05:40.274Z,96.80
2018-04-13T19:08:07.739Z,96.70
2018-04-13T19:10:35.309Z,96.70
2018-04-13T19:13:02.815Z,96.70
2018-04-13T19:15:30.364Z,96.80
2018-04-13T19:17:57.848Z,96.90
2018-04-13T19:20:26.164Z,97.10
2018-04-13T19:22:53.670Z,97.00
2018-04-13T19:25:21.180Z,97.00
2018-04-13T19:27:48.668Z,96.80
2018-04-13T19:30:16.142Z,96.70
2018-04-13T19:32:43.618Z,96.80
2018-04-13T19:35:11.850Z,97.10
2018-04-13T19:37:39.326Z,97.00
2018-04-13T19:40:06.888Z,97.20
2018-04-13T19:42:34.444Z,97.20
2018-04-13T19:45:01.984Z,97.20
2018-04-13T19:47:29.469Z,97.40
2018-04-13T19:49:56.976Z,97.30
2018-04-13T19:52:24.456Z,97.30
2018-04-13T19:54:51.987Z,97.70
2018-04-13T19:57:19.520Z,97.40
2018-04-13T19:59:47.813Z,97.80
2018-04-13T20:02:15.275Z,97.80
2018-04-13T20:04:42.731Z,97.80
2018-04-13T20:07:10.189Z,97.90
2018-04-13T20:09:37.715Z,98.00
2018-04-13T20:12:05.931Z,97.90
2018-04-13T20:14:33.399Z,97.80
2018-04-13T20:17:00.905Z,97.90
2018-04-13T20:19:29.198Z,97.90
2018-04-13T20:21:56.725Z,97.90
2018-04-13T20:24:25.002Z,97.90
2018-04-13T20:26:53.258Z,98.00
2018-04-13T20:29:20.757Z,98.00
2018-04-13T20:31:49.268Z,98.50
2018-04-13T20:34:16.752Z,98.50
2018-04-13T20:36:44.286Z,98.70
2018-04-13T20:39:11.868Z,98.80
2018-04-13T20:41:39.360Z,98.90
2018-04-13T20:44:07.615Z,99.30
2018-04-13T20:46:35.248Z,99.20
2018-04-13T20:49:02.724Z,99.40
2018-04-13T20:51:30.170Z,99.40
2018-04-13T20:53:57.655Z,99.30
2018-04-13T20:56:25.236Z,99.50
2018-04-13T20:58:53.432Z,99.70
2018-04-13T21:01:21.072Z,99.70
2018-04-13T21:03:48.755Z,99.90
2018-04-13T21:06:16.261Z,99.90
2018-04-13T21:08:43.725Z,99.90
2018-04-13T21:11:11.336Z,99.90
2018-04-13T21:13:38.812Z,99.90
2018-04-13T21:16:06.271Z,99.90
2018-04-13T21:18:33.768Z,99.90
2018-04-13T21:21:01.995Z,99.90
2018-04-13T21:23:29.502Z,99.90
2018-04-13T21:25:56.964Z,99.90
2018-04-13T21:28:25.215Z,99.90
2018-04-13T21:30:52.830Z,99.90
2018-04-13T21:33:20.702Z,99.90
2018-04-13T21:35:48.214Z,99.90
2018-04-13T21:38:16.507Z,99.90
2018-04-13T21:40:44.719Z,99.90
2018-04-13T21:43:12.240Z,99.90
2018-04-13T21:45:39.747Z,99.90
2018-04-13T21:48:07.231Z,99.90
2018-04-13T21:50:35.453Z,99.90
2018-04-13T21:53:03.003Z,99.90
2018-04-13T21:55:30.515Z,99.90
2018-04-13T21:57:58.786Z,99.90
2018-04-13T22:00:26.281Z,99.90
2018-04-13T22:02:53.815Z,99.90
2018-04-13T22:05:21.352Z,99.90
2018-04-13T22:07:48.790Z,99.90
2018-04-13T22:10:16.308Z,99.90
2018-04-13T22:12:55.595Z,99.90
2018-04-13T22:15:25.775Z,99.90
2018-04-13T22:17:53.239Z,99.90
2018-04-13T22:20:20.718Z,99.90
2018-04-13T22:22:48.190Z,99.90
2018-04-13T22:25:15.636Z,99.90
2018-04-13T22:27:43.109Z,99.90
2018-04-13T22:30:10.548Z,99.90
2018-04-13T22:32:38.023Z,99.90
2018-04-13T22:35:05.461Z,99.90
2018-04-13T22:37:32.920Z,99.90
2018-04-13T22:40:00.388Z,99.90
2018-04-13T22:42:27.842Z,99.90
2018-04-13T22:44:55.479Z,99.90
2018-04-13T22:47:22.924Z,99.90
2018-04-13T22:49:50.397Z,99.90
2018-04-13T22:52:17.887Z,99.90
2018-04-13T22:54:45.324Z,99.90
2018-04-13T22:57:12.800Z,99.90
2018-04-13T22:59:40.254Z,99.90
2018-04-13T23:02:07.750Z,99.90
2018-04-13T23:04:35.266Z,99.90
2018-04-13T23:07:02.716Z,99.90
2018-04-13T23:09:30.226Z,99.90
2018-04-13T23:11:57.709Z,99.90
2018-04-13T23:14:25.212Z,99.90
2018-04-13T23:16:52.699Z,99.90
2018-04-13T23:19:20.201Z,99.90
2018-04-13T23:21:47.671Z,99.90
2018-04-13T23:24:15.442Z,99.90
2018-04-13T23:26:42.984Z,99.90
2018-04-13T23:29:10.437Z,99.90
2018-04-13T23:31:37.889Z,99.90
2018-04-13T23:34:05.361Z,99.90
2018-04-13T23:36:32.903Z,99.90
2018-04-13T23:39:00.414Z,99.90
2018-04-13T23:41:28.657Z,99.90
2018-04-13T23:43:56.200Z,99.90
2018-04-13T23:46:23.665Z,99.90
2018-04-13T23:48:51.147Z,99.90
2018-04-13T23:51:18.676Z,99.90
2018-04-13T23:53:46.255Z,99.90
2018-04-13T23:56:13.738Z,99.90
2018-04-13T23:58:41.951Z,99.90
